createdAt,value
2022-08-18T00:02:07.641Z,17.76
2022-08-18T00:04:48.739Z,17.75
2022-08-18T00:07:18.563Z,17.77
2022-08-18T00:09:47.771Z,17.75
2022-08-18T00:12:17.207Z,17.75
2022-08-18T00:14:45.498Z,17.76
2022-08-18T00:17:15.184Z,17.70
2022-08-18T00:19:46.471Z,17.63
2022-08-18T00:22:17.726Z,17.58
2022-08-18T00:24:48.415Z,17.59
2022-08-18T00:27:17.256Z,17.56
2022-08-18T00:29:45.085Z,17.54
2022-08-18T00:32:15.189Z,17.50
2022-08-18T00:34:42.936Z,17.44
2022-08-18T00:37:10.612Z,17.44
2022-08-18T00:39:40.655Z,17.42
2022-08-18T00:42:28.879Z,17.41
2022-08-18T00:45:03.030Z,17.38
2022-08-18T00:47:41.122Z,17.31
2022-08-18T00:50:13.542Z,17.31
2022-08-18T00:52:43.741Z,17.32
2022-08-18T00:55:11.662Z,17.29
2022-08-18T00:57:39.846Z,17.28
2022-08-18T01:00:11.569Z,17.25
2022-08-18T01:02:41.426Z,17.22
2022-08-18T01:05:12.627Z,17.19
2022-08-18T01:07:43.988Z,17.13
2022-08-18T01:10:15.712Z,17.07
2022-08-18T01:12:45.949Z,17.03
2022-08-18T01:15:28.747Z,16.97
2022-08-18T01:18:17.684Z,16.92
2022-08-18T01:21:18.325Z,16.88
2022-08-18T01:23:48.705Z,16.86
2022-08-18T01:26:16.880Z,16.88
2022-08-18T01:28:46.414Z,16.89
2022-08-18T01:31:29.498Z,16.85
2022-08-18T01:33:57.278Z,16.77
2022-08-18T01:36:24.957Z,16.74
2022-08-18T01:38:54.154Z,16.71
2022-08-18T01:41:29.491Z,16.69
2022-08-18T01:43:59.140Z,16.69
2022-08-18T01:46:27.634Z,16.67
2022-08-18T01:48:55.329Z,16.66
2022-08-18T01:51:38.050Z,16.64
2022-08-18T01:54:10.802Z,16.63
2022-08-18T01:56:38.481Z,16.56
2022-08-18T01:59:06.973Z,16.54
2022-08-18T02:01:38.911Z,16.54
2022-08-18T02:04:34.528Z,16.48
2022-08-18T02:07:04.229Z,16.42
2022-08-18T02:09:33.622Z,16.40
2022-08-18T02:12:02.148Z,16.45
2022-08-18T02:14:31.317Z,16.49
2022-08-18T02:17:01.962Z,16.50
2022-08-18T02:19:33.645Z,16.47
2022-08-18T02:22:01.339Z,16.45
2022-08-18T02:24:29.081Z,16.46
2022-08-18T02:26:58.315Z,16.44
2022-08-18T02:29:26.131Z,16.42
2022-08-18T02:31:54.187Z,16.41
2022-08-18T02:34:22.015Z,16.38
2022-08-18T02:36:49.899Z,16.38
2022-08-18T02:39:20.907Z,16.40
2022-08-18T02:41:48.594Z,16.41
2022-08-18T02:44:20.201Z,16.39
2022-08-18T02:46:47.942Z,16.37
2022-08-18T02:49:15.641Z,16.35
2022-08-18T02:51:47.373Z,16.31
2022-08-18T02:54:15.106Z,16.26
2022-08-18T02:56:45.604Z,16.18
2022-08-18T02:59:14.759Z,16.14
2022-08-18T03:01:46.060Z,16.11
2022-08-18T03:04:15.665Z,16.01
2022-08-18T03:06:44.365Z,15.97
2022-08-18T03:09:14.330Z,15.99
2022-08-18T03:11:42.675Z,16.01
2022-08-18T03:14:12.261Z,16.01
2022-08-18T03:16:53.330Z,16.03
2022-08-18T03:19:24.108Z,16.00
2022-08-18T03:21:52.826Z,15.98
2022-08-18T03:24:22.835Z,15.92
2022-08-18T03:26:52.691Z,15.90
2022-08-18T03:29:20.815Z,15.91
2022-08-18T03:31:49.013Z,15.92
2022-08-18T03:34:19.461Z,15.94
2022-08-18T03:36:49.298Z,15.93
2022-08-18T03:39:17.642Z,15.93
2022-08-18T03:41:59.090Z,15.93
2022-08-18T03:44:32.855Z,15.75
2022-08-18T03:47:03.991Z,15.77
2022-08-18T03:49:33.744Z,15.84
2022-08-18T03:52:02.975Z,15.89
2022-08-18T03:54:32.307Z,15.96
2022-08-18T03:57:00.376Z,16.05
2022-08-18T03:59:32.027Z,16.10
2022-08-18T04:02:00.087Z,16.13
2022-08-18T04:04:28.879Z,16.16
2022-08-18T04:06:59.285Z,16.13
2022-08-18T04:09:29.070Z,16.17
2022-08-18T04:11:57.121Z,16.22
2022-08-18T04:14:26.045Z,16.24
2022-08-18T04:16:53.774Z,16.30
2022-08-18T04:19:26.818Z,16.34
2022-08-18T04:21:56.242Z,16.38
2022-08-18T04:24:24.207Z,16.44
2022-08-18T04:26:53.903Z,16.50
2022-08-18T04:29:22.017Z,16.53
2022-08-18T04:31:50.236Z,16.55
2022-08-18T04:34:18.492Z,16.59
2022-08-18T04:36:46.190Z,16.63
2022-08-18T04:39:14.479Z,16.65
2022-08-18T04:41:43.710Z,16.73
2022-08-18T04:44:14.001Z,16.80
2022-08-18T04:46:44.095Z,16.86
2022-08-18T04:49:12.487Z,16.93
2022-08-18T04:52:34.864Z,17.00
2022-08-18T04:54:28.636Z,17.05
2022-08-18T04:56:56.314Z,17.07
2022-08-18T04:59:26.054Z,17.10
2022-08-18T05:01:53.744Z,17.14
2022-08-18T05:04:21.425Z,17.18
2022-08-18T05:06:49.107Z,17.22
2022-08-18T05:09:22.964Z,17.31
2022-08-18T05:11:51.493Z,17.37
2022-08-18T05:14:19.332Z,17.40
2022-08-18T05:16:49.622Z,17.46
2022-08-18T05:19:19.896Z,17.51
2022-08-18T05:21:50.817Z,17.54
2022-08-18T05:24:19.752Z,17.58
2022-08-18T05:26:47.459Z,17.61
2022-08-18T05:29:18.521Z,17.63
2022-08-18T05:31:49.291Z,17.68
2022-08-18T05:34:17.508Z,17.74
2022-08-18T05:36:53.470Z,17.79
2022-08-18T05:39:23.590Z,17.86
2022-08-18T05:41:52.928Z,17.90
2022-08-18T05:44:23.387Z,17.98
2022-08-18T05:46:54.255Z,17.99
2022-08-18T05:49:22.808Z,18.07
2022-08-18T05:51:52.003Z,18.08
2022-08-18T05:54:37.953Z,18.11
2022-08-18T05:57:07.189Z,18.12
2022-08-18T05:59:35.849Z,18.17
2022-08-18T06:02:08.931Z,18.20
2022-08-18T06:04:41.296Z,18.25
2022-08-18T06:07:11.791Z,18.33
2022-08-18T06:09:43.501Z,18.40
2022-08-18T06:12:18.323Z,18.45
2022-08-18T06:14:46.267Z,18.51
2022-08-18T06:17:25.192Z,18.51
2022-08-18T06:19:56.693Z,18.53
2022-08-18T06:22:30.584Z,18.57
2022-08-18T06:25:03.268Z,18.60
2022-08-18T06:27:39.692Z,18.63
2022-08-18T06:30:12.864Z,18.68
2022-08-18T06:33:01.112Z,18.71
2022-08-18T06:35:34.418Z,18.78
2022-08-18T06:38:23.882Z,18.82
2022-08-18T06:41:01.347Z,18.85
2022-08-18T06:43:29.160Z,18.85
2022-08-18T06:45:59.975Z,18.89
2022-08-18T06:48:34.124Z,18.94
2022-08-18T06:51:04.450Z,18.98
2022-08-18T06:53:51.163Z,19.03
2022-08-18T06:56:25.936Z,19.10
2022-08-18T06:58:55.447Z,19.17
2022-08-18T07:01:24.795Z,19.23
2022-08-18T07:03:54.972Z,19.29
2022-08-18T07:06:30.551Z,19.33
2022-08-18T07:09:13.063Z,19.44
2022-08-18T07:11:43.371Z,19.49
2022-08-18T07:14:17.072Z,19.58
2022-08-18T07:17:00.782Z,19.58
2022-08-18T07:19:30.093Z,19.62
2022-08-18T07:22:04.531Z,19.65
2022-08-18T07:24:34.420Z,19.72
2022-08-18T07:27:04.203Z,19.78
2022-08-18T07:29:32.942Z,19.78
2022-08-18T07:32:02.168Z,19.78
2022-08-18T07:34:36.826Z,19.79
2022-08-18T07:37:09.195Z,19.82
2022-08-18T07:39:39.977Z,19.89
2022-08-18T07:42:37.255Z,19.91
2022-08-18T07:45:13.622Z,20.01
2022-08-18T07:47:46.902Z,20.12
2022-08-18T07:50:31.448Z,20.20
2022-08-18T07:53:09.909Z,20.25
2022-08-18T07:55:37.678Z,20.39
2022-08-18T07:58:16.091Z,20.53
2022-08-18T08:00:58.897Z,20.59
2022-08-18T08:03:33.199Z,20.67
2022-08-18T08:06:05.743Z,20.63
2022-08-18T08:08:40.987Z,20.68
2022-08-18T08:11:14.678Z,20.80
2022-08-18T08:13:57.588Z,20.77
2022-08-18T08:16:29.538Z,20.84
2022-08-18T08:19:12.364Z,20.85
2022-08-18T08:21:44.781Z,20.89
2022-08-18T08:24:26.632Z,20.98
2022-08-18T08:27:00.286Z,20.99
2022-08-18T08:29:36.564Z,20.98
2022-08-18T08:32:05.458Z,20.94
2022-08-18T08:34:37.638Z,20.98
2022-08-18T08:37:08.562Z,21.01
2022-08-18T08:39:40.948Z,21.07
2022-08-18T08:42:30.570Z,21.18
2022-08-18T08:45:01.050Z,21.24
2022-08-18T08:47:33.213Z,21.25
2022-08-18T08:50:03.242Z,21.25
2022-08-18T08:52:32.730Z,21.26
2022-08-18T08:55:05.130Z,21.34
2022-08-18T08:57:35.714Z,21.37
2022-08-18T09:00:04.154Z,21.41
2022-08-18T09:02:48.480Z,21.42
2022-08-18T09:05:19.743Z,21.48
2022-08-18T09:07:59.076Z,21.57
2022-08-18T09:10:40.716Z,21.59
2022-08-18T09:13:19.535Z,21.66
2022-08-18T09:15:57.186Z,21.82
2022-08-18T09:18:39.712Z,21.89
2022-08-18T09:21:16.044Z,21.88
2022-08-18T09:23:45.811Z,21.92
2022-08-18T09:26:25.660Z,21.91
2022-08-18T09:28:57.532Z,21.87
2022-08-18T09:31:25.411Z,21.89
2022-08-18T09:34:11.239Z,21.97
2022-08-18T09:36:51.872Z,22.14
2022-08-18T09:39:40.325Z,22.20
2022-08-18T09:42:14.278Z,22.29
2022-08-18T09:45:02.183Z,22.38
2022-08-18T09:47:48.497Z,22.42
2022-08-18T09:50:34.236Z,22.44
2022-08-18T09:53:20.034Z,22.43
2022-08-18T09:56:00.807Z,22.48
2022-08-18T09:58:48.195Z,22.59
2022-08-18T10:01:23.269Z,22.61
2022-08-18T10:04:10.033Z,22.65
2022-08-18T10:06:42.899Z,22.66
2022-08-18T10:12:09.898Z,22.78
2022-08-18T10:14:59.618Z,22.82
2022-08-18T10:17:35.484Z,23.01
2022-08-18T10:20:26.585Z,23.06
2022-08-18T10:22:55.524Z,23.15
2022-08-18T10:25:34.176Z,23.21
2022-08-18T10:28:05.441Z,23.23
2022-08-18T10:30:56.767Z,23.29
2022-08-18T10:33:45.063Z,23.28
2022-08-18T10:36:33.615Z,23.29
2022-08-18T10:39:05.576Z,23.35
2022-08-18T10:41:41.469Z,23.42
2022-08-18T10:44:28.334Z,23.50
2022-08-18T10:46:58.694Z,23.62
2022-08-18T10:49:28.199Z,23.68
2022-08-18T10:52:14.087Z,23.67
2022-08-18T10:54:54.592Z,23.82
2022-08-18T10:57:28.671Z,23.93
2022-08-18T11:00:00.232Z,23.98
2022-08-18T11:02:41.838Z,24.03
2022-08-18T11:05:12.123Z,24.08
2022-08-18T11:07:44.694Z,24.06
2022-08-18T11:13:09.919Z,23.98
2022-08-18T11:15:47.488Z,24.01
2022-08-18T11:18:24.231Z,24.03
2022-08-18T11:20:52.428Z,24.06
2022-08-18T11:23:21.524Z,24.17
2022-08-18T11:25:50.240Z,24.27
2022-08-18T11:28:19.514Z,24.44
2022-08-18T11:30:48.888Z,24.47
2022-08-18T11:33:22.723Z,24.44
2022-08-18T11:35:51.636Z,24.39
2022-08-18T11:38:21.116Z,24.36
2022-08-18T11:41:12.377Z,24.36
2022-08-18T11:43:47.425Z,24.40
2022-08-18T11:49:15.701Z,24.52
2022-08-18T11:51:54.985Z,24.52
2022-08-18T11:54:24.913Z,24.53
2022-08-18T11:56:54.133Z,24.53
2022-08-18T11:59:53.605Z,24.60
2022-08-18T12:02:22.465Z,24.77
2022-08-18T12:04:53.280Z,24.92
2022-08-18T12:07:28.324Z,25.04
2022-08-18T12:10:17.725Z,25.19
2022-08-18T12:15:47.046Z,25.33
2022-08-18T12:18:18.647Z,25.34
2022-08-18T12:20:54.383Z,25.34
2022-08-18T12:23:22.910Z,25.42
2022-08-18T12:25:53.749Z,25.37
2022-08-18T12:28:28.391Z,25.40
2022-08-18T12:30:57.500Z,25.29
2022-08-18T12:33:34.185Z,25.19
2022-08-18T12:36:13.638Z,25.18
2022-08-18T12:38:42.975Z,25.16
2022-08-18T12:41:12.088Z,25.23
2022-08-18T12:43:41.119Z,25.31
2022-08-18T12:46:11.927Z,25.28
2022-08-18T12:48:40.436Z,25.34
2022-08-18T12:51:08.798Z,25.36
2022-08-18T12:53:57.975Z,25.27
2022-08-18T12:56:27.156Z,25.43
2022-08-18T12:58:57.032Z,25.48
2022-08-18T13:01:26.663Z,25.46
2022-08-18T13:04:10.958Z,25.40
2022-08-18T13:06:54.057Z,25.36
2022-08-18T13:09:35.371Z,25.34
2022-08-18T13:12:17.322Z,25.30
2022-08-18T13:14:46.784Z,25.25
2022-08-18T13:17:29.475Z,25.22
2022-08-18T13:20:02.110Z,25.23
2022-08-18T13:22:32.779Z,25.25
2022-08-18T13:25:01.107Z,25.26
2022-08-18T13:27:32.761Z,25.27
2022-08-18T13:30:30.449Z,25.25
2022-08-18T13:32:59.295Z,25.27
2022-08-18T13:35:29.909Z,25.42
2022-08-18T13:38:12.355Z,25.50
2022-08-18T13:40:45.663Z,25.57
2022-08-18T13:43:15.443Z,25.51
2022-08-18T13:45:52.739Z,25.51
2022-08-18T13:48:21.522Z,25.47
2022-08-18T13:50:52.789Z,25.40
2022-08-18T13:53:21.931Z,25.38
2022-08-18T13:55:50.439Z,25.39
2022-08-18T13:58:20.881Z,25.39
2022-08-18T14:00:52.346Z,25.43
2022-08-18T14:03:42.396Z,25.48
2022-08-18T14:06:13.325Z,25.42
2022-08-18T14:08:41.532Z,25.39
2022-08-18T14:11:10.069Z,25.36
2022-08-18T14:13:43.574Z,25.31
2022-08-18T14:16:18.543Z,25.25
2022-08-18T14:19:09.693Z,25.21
2022-08-18T14:22:06.990Z,25.10
2022-08-18T14:24:56.887Z,25.04
2022-08-18T14:27:26.444Z,25.02
2022-08-18T14:29:55.928Z,24.96
2022-08-18T14:32:29.117Z,24.87
2022-08-18T14:35:00.639Z,24.79
2022-08-18T14:37:29.018Z,24.71
2022-08-18T14:39:57.259Z,24.65
2022-08-18T14:42:41.491Z,24.58
2022-08-18T14:45:17.606Z,24.49
2022-08-18T14:47:57.689Z,24.45
2022-08-18T14:50:25.892Z,24.40
2022-08-18T14:52:54.257Z,24.34
2022-08-18T14:55:22.955Z,24.34
2022-08-18T14:57:51.453Z,24.32
2022-08-18T15:00:22.579Z,24.30
2022-08-18T15:02:51.515Z,24.29
2022-08-18T15:05:24.118Z,24.25
2022-08-18T15:07:53.248Z,24.22
2022-08-18T15:10:23.667Z,24.22
2022-08-18T15:12:57.788Z,24.21
2022-08-18T15:15:25.863Z,24.24
2022-08-18T15:17:53.568Z,24.21
2022-08-18T15:20:28.710Z,24.18
2022-08-18T15:23:18.095Z,24.13
2022-08-18T15:25:51.081Z,24.11
2022-08-18T15:28:19.925Z,24.10
2022-08-18T15:30:51.041Z,24.03
2022-08-18T15:33:23.769Z,23.97
2022-08-18T15:35:54.634Z,23.91
2022-08-18T15:38:23.207Z,23.88
2022-08-18T15:40:57.094Z,23.79
2022-08-18T15:43:30.319Z,23.69
2022-08-18T15:45:59.374Z,23.66
2022-08-18T15:48:27.865Z,23.58
2022-08-18T15:50:56.982Z,23.49
2022-08-18T15:53:30.002Z,23.41
2022-08-18T15:55:58.118Z,23.33
2022-08-18T15:58:26.807Z,23.29
2022-08-18T16:00:56.292Z,23.24
2022-08-18T16:03:26.823Z,23.17
2022-08-18T16:05:55.905Z,23.07
2022-08-18T16:08:26.667Z,23.00
2022-08-18T16:10:55.569Z,22.94
2022-08-18T16:13:24.614Z,22.90
2022-08-18T16:15:52.303Z,22.80
2022-08-18T16:18:22.028Z,22.74
2022-08-18T16:20:50.611Z,22.69
2022-08-18T16:23:20.715Z,22.65
2022-08-18T16:25:49.976Z,22.55
2022-08-18T16:28:17.628Z,22.52
2022-08-18T16:30:47.797Z,22.47
2022-08-18T16:33:15.481Z,22.45
2022-08-18T16:35:45.339Z,22.45
2022-08-18T16:38:13.858Z,22.31
2022-08-18T16:40:41.931Z,22.28
2022-08-18T16:43:12.720Z,22.23
2022-08-18T16:45:42.859Z,22.19
2022-08-18T16:48:12.565Z,22.20
2022-08-18T16:50:45.558Z,22.13
2022-08-18T16:53:13.243Z,22.06
2022-08-18T16:55:42.994Z,22.01
2022-08-18T16:58:29.397Z,21.95
2022-08-18T17:01:18.768Z,21.93
2022-08-18T17:04:04.130Z,21.89
2022-08-18T17:06:47.331Z,21.73
2022-08-18T17:09:15.821Z,21.63
2022-08-18T17:11:51.243Z,21.52
2022-08-18T17:14:21.578Z,21.49
2022-08-18T17:16:49.493Z,21.44
2022-08-18T17:19:17.524Z,21.41
2022-08-18T17:21:45.261Z,21.31
2022-08-18T17:24:14.649Z,21.26
2022-08-18T17:26:48.931Z,21.24
2022-08-18T17:29:20.191Z,21.15
2022-08-18T17:31:51.273Z,21.11
2022-08-18T17:34:21.227Z,21.17
2022-08-18T17:36:52.675Z,21.12
2022-08-18T17:39:22.199Z,21.11
2022-08-18T17:42:07.567Z,21.00
2022-08-18T17:44:36.557Z,20.94
2022-08-18T17:47:19.135Z,20.88
2022-08-18T17:50:28.295Z,20.83
2022-08-18T17:52:55.847Z,20.77
2022-08-18T17:55:25.706Z,20.72
2022-08-18T17:57:58.738Z,20.70
2022-08-18T18:00:27.698Z,20.73
2022-08-18T18:02:56.747Z,20.69
2022-08-18T18:05:26.382Z,20.65
2022-08-18T18:07:56.630Z,20.58
2022-08-18T18:10:26.190Z,20.49
2022-08-18T18:13:06.254Z,20.42
2022-08-18T18:15:34.549Z,20.37
2022-08-18T18:18:19.245Z,20.34
2022-08-18T18:20:57.142Z,20.31
2022-08-18T18:23:29.088Z,20.28
2022-08-18T18:25:58.129Z,20.22
2022-08-18T18:28:28.041Z,20.17
2022-08-18T18:30:58.906Z,20.11
2022-08-18T18:33:30.060Z,20.01
2022-08-18T18:35:59.655Z,19.93
2022-08-18T18:38:28.694Z,19.86
2022-08-18T18:40:58.965Z,19.80
2022-08-18T18:43:29.058Z,19.73
2022-08-18T18:46:03.614Z,19.68
2022-08-18T18:48:45.254Z,19.63
2022-08-18T18:51:33.251Z,19.60
2022-08-18T18:54:06.378Z,19.51
2022-08-18T18:56:37.319Z,19.43
2022-08-18T18:59:12.687Z,19.35
2022-08-18T19:01:44.461Z,19.34
2022-08-18T19:04:16.906Z,19.31
2022-08-18T19:06:49.326Z,19.25
2022-08-18T19:09:20.351Z,19.27
2022-08-18T19:11:57.732Z,19.30
2022-08-18T19:14:29.510Z,19.36
2022-08-18T19:17:00.984Z,19.34
2022-08-18T19:19:36.806Z,19.33
2022-08-18T19:22:10.019Z,19.34
2022-08-18T19:24:41.181Z,19.38
2022-08-18T19:27:12.105Z,19.41
2022-08-18T19:29:43.442Z,19.41
2022-08-18T19:32:16.570Z,19.41
2022-08-18T19:34:52.474Z,19.37
2022-08-18T19:37:27.478Z,19.30
2022-08-18T19:40:03.260Z,19.31
2022-08-18T19:42:35.256Z,19.28
2022-08-18T19:45:16.338Z,19.26
2022-08-18T19:47:49.570Z,19.25
2022-08-18T19:50:32.793Z,19.21
2022-08-18T19:53:09.199Z,19.16
2022-08-18T19:55:43.903Z,19.13
2022-08-18T19:58:32.002Z,19.07
2022-08-18T20:01:04.572Z,19.06
2022-08-18T20:03:49.543Z,19.03
2022-08-18T20:06:34.094Z,19.00
2022-08-18T20:09:21.499Z,19.02
2022-08-18T20:11:58.475Z,19.04
2022-08-18T20:14:26.319Z,19.03
2022-08-18T20:17:12.079Z,19.05
2022-08-18T20:19:42.159Z,19.02
2022-08-18T20:22:16.242Z,19.03
2022-08-18T20:24:51.147Z,18.99
2022-08-18T20:27:32.790Z,19.00
2022-08-18T20:30:30.207Z,19.01
2022-08-18T20:33:07.859Z,18.97
2022-08-18T20:35:38.717Z,18.93
2022-08-18T20:38:14.748Z,18.95
2022-08-18T20:40:44.754Z,18.97
2022-08-18T20:43:28.703Z,18.96
2022-08-18T20:46:10.074Z,18.96
2022-08-18T20:49:06.109Z,18.96
2022-08-18T20:51:37.858Z,18.95
2022-08-18T20:54:13.668Z,18.91
2022-08-18T20:56:46.517Z,18.86
2022-08-18T20:59:20.030Z,18.83
2022-08-18T21:01:54.442Z,18.86
2022-08-18T21:04:33.738Z,18.84
2022-08-18T21:07:12.889Z,18.82
2022-08-18T21:09:49.198Z,18.83
2022-08-18T21:12:21.984Z,18.81
2022-08-18T21:14:52.950Z,18.82
2022-08-18T21:17:20.646Z,18.82
2022-08-18T21:19:48.340Z,18.81
2022-08-18T21:22:16.159Z,18.82
2022-08-18T21:24:46.899Z,18.84
2022-08-18T21:27:27.118Z,18.86
2022-08-18T21:29:55.974Z,18.87
2022-08-18T21:32:29.237Z,18.85
2022-08-18T21:34:57.030Z,18.86
2022-08-18T21:37:24.777Z,18.86
2022-08-18T21:39:55.790Z,18.89
2022-08-18T21:42:26.179Z,18.90
2022-08-18T21:44:55.394Z,18.90
2022-08-18T21:47:24.760Z,18.89
2022-08-18T21:50:01.711Z,18.86
2022-08-18T21:52:30.494Z,18.87
2022-08-18T21:55:02.795Z,18.90
2022-08-18T21:57:47.439Z,18.91
2022-08-18T22:00:18.102Z,18.87
2022-08-18T22:02:46.278Z,18.88
2022-08-18T22:05:26.208Z,18.91
2022-08-18T22:07:53.886Z,18.88
2022-08-18T22:10:45.330Z,18.92
2022-08-18T22:13:37.851Z,18.92
2022-08-18T22:16:22.919Z,18.90
2022-08-18T22:18:50.834Z,18.93
2022-08-18T22:21:32.422Z,18.95
2022-08-18T22:24:18.030Z,18.96
2022-08-18T22:26:48.342Z,18.97
2022-08-18T22:29:23.363Z,18.94
2022-08-18T22:31:52.298Z,18.93
2022-08-18T22:34:27.790Z,18.92
2022-08-18T22:37:00.383Z,18.95
2022-08-18T22:39:29.454Z,18.97
2022-08-18T22:41:59.025Z,18.97
2022-08-18T22:44:26.840Z,19.00
2022-08-18T22:46:54.594Z,19.02
2022-08-18T22:49:22.733Z,19.03
2022-08-18T22:51:51.703Z,19.03
2022-08-18T22:54:19.926Z,19.03
2022-08-18T22:56:54.056Z,19.04
2022-08-18T22:59:26.869Z,19.01
2022-08-18T23:01:55.491Z,19.02
2022-08-18T23:04:24.786Z,19.06
2022-08-18T23:06:53.767Z,19.05
2022-08-18T23:09:22.625Z,19.05
2022-08-18T23:11:50.422Z,19.05
2022-08-18T23:14:18.350Z,19.03
2022-08-18T23:16:47.455Z,19.03
2022-08-18T23:19:15.878Z,19.03
2022-08-18T23:21:44.281Z,19.01
2022-08-18T23:24:13.891Z,19.05
2022-08-18T23:26:42.073Z,19.04
2022-08-18T23:29:11.666Z,19.01
2022-08-18T23:31:40.199Z,19.02
2022-08-18T23:34:10.296Z,19.03
2022-08-18T23:36:45.256Z,19.04
2022-08-18T23:39:13.704Z,19.05
2022-08-18T23:41:41.489Z,19.04
2022-08-18T23:44:09.206Z,19.07
2022-08-18T23:46:37.834Z,19.06
2022-08-18T23:49:10.644Z,19.06
2022-08-18T23:51:42.679Z,19.08
2022-08-18T23:54:14.401Z,19.08
2022-08-18T23:56:42.103Z,19.09
2022-08-18T23:59:10.121Z,19.09
